Time;durP1;ratioP1;P1;durP2;ratioP2;P2;SDS_P1;SDS_P2;PMS_P1;PMS_P2;Temp;Humidity;BMP_temperature;BMP_pressure;BME280_temperature;BME280_humidity;BME280_pressure;Samples;Min_cycle;Max_cycle;Signal;HPM_P1;HPM_P2
2021/12/03 00:02:09;;;;;;;0.00;0.00;;;0.40;99.90;;;;;;4940484;29;20089;-64
2021/12/03 00:04:35;;;;;;;0.00;0.00;;;0.50;99.90;;;;;;4938222;28;20126;-64
2021/12/03 00:07:00;;;;;;;0.00;0.00;;;0.50;99.90;;;;;;4939146;28;20259;-64
2021/12/03 00:09:27;;;;;;;0.00;0.00;;;0.50;99.90;;;;;;4939932;29;20070;-64
2021/12/03 00:11:52;;;;;;;0.00;0.00;;;0.50;99.90;;;;;;4940577;28;20910;-64
2021/12/03 00:14:18;;;;;;;0.00;0.00;;;0.60;99.90;;;;;;4940563;29;20050;-64
2021/12/03 00:16:44;;;;;;;0.00;0.00;;;0.60;99.90;;;;;;4939259;29;20129;-64
2021/12/03 00:19:09;;;;;;;0.00;0.00;;;0.70;99.90;;;;;;4938857;29;20569;-64
2021/12/03 00:21:37;;;;;;;0.00;0.00;;;0.60;99.90;;;;;;4939068;29;20055;-66
2021/12/03 00:24:04;;;;;;;0.00;0.00;;;0.60;99.90;;;;;;4939916;28;20062;-65
2021/12/03 00:26:29;;;;;;;0.00;0.00;;;0.70;99.90;;;;;;4940264;28;20133;-65
2021/12/03 00:28:55;;;;;;;0.00;0.00;;;0.60;99.90;;;;;;4938828;29;20138;-64
2021/12/03 00:31:21;;;;;;;0.00;0.00;;;0.60;99.90;;;;;;4954900;28;20044;-64
2021/12/03 00:33:46;;;;;;;0.00;0.00;;;0.60;99.90;;;;;;4939783;29;20055;-64
2021/12/03 00:36:12;;;;;;;0.00;0.00;;;0.60;99.90;;;;;;4939627;29;20039;-64
2021/12/03 00:38:47;;;;;;;0.00;0.00;;;0.50;99.90;;;;;;4940616;28;20534;-64
2021/12/03 00:41:16;;;;;;;0.00;0.00;;;0.50;99.90;;;;;;4940093;29;20509;-64
2021/12/03 00:43:47;;;;;;;0.00;0.00;;;0.50;99.90;;;;;;4939209;28;20058;-64
2021/12/03 00:46:17;;;;;;;0.00;0.00;;;0.50;99.90;;;;;;4939173;28;20506;-64
2021/12/03 00:48:45;;;;;;;0.00;0.00;;;0.50;99.90;;;;;;4939446;28;20122;-63
2021/12/03 00:51:12;;;;;;;0.00;0.00;;;0.50;99.90;;;;;;4939101;28;20126;-64
2021/12/03 00:53:39;;;;;;;0.00;0.00;;;0.50;99.90;;;;;;4940378;28;20817;-63
2021/12/03 00:56:06;;;;;;;0.00;0.00;;;0.50;99.90;;;;;;4939599;28;20055;-64
2021/12/03 00:58:31;;;;;;;0.00;0.00;;;2.00;99.90;;;;;;4939185;28;20047;-64
2021/12/03 01:00:57;;;;;;;0.13;0.13;;;0.70;99.90;;;;;;4938080;28;20061;-63
2021/12/03 01:03:23;;;;;;;0.00;0.00;;;0.50;99.90;;;;;;4937473;29;20047;-64
2021/12/03 01:05:49;;;;;;;0.00;0.00;;;0.60;99.90;;;;;;4939684;29;20040;-63
2021/12/03 01:08:14;;;;;;;0.00;0.00;;;0.60;99.90;;;;;;4938489;29;20070;-63
2021/12/03 01:10:40;;;;;;;0.00;0.00;;;0.60;99.90;;;;;;4938217;29;20054;-64
2021/12/03 01:13:06;;;;;;;0.00;0.00;;;0.60;99.90;;;;;;4939953;28;20126;-66
2021/12/03 01:15:35;;;;;;;0.00;0.00;;;0.60;99.90;;;;;;4940264;29;20043;-66
2021/12/03 01:18:02;;;;;;;0.00;0.00;;;0.60;99.90;;;;;;4939445;28;20047;-65
2021/12/03 01:20:30;;;;;;;0.00;0.00;;;0.60;99.90;;;;;;4938135;29;20055;-66
2021/12/03 01:22:56;;;;;;;0.00;0.00;;;0.60;99.90;;;;;;4938934;28;20527;-66
2021/12/03 01:25:22;;;;;;;0.00;0.00;;;0.60;99.90;;;;;;4940128;28;20051;-65
2021/12/03 01:27:49;;;;;;;0.00;0.00;;;0.70;99.90;;;;;;4938720;28;20051;-64
2021/12/03 01:30:17;;;;;;;0.00;0.00;;;0.70;99.90;;;;;;4939967;28;20157;-65
2021/12/03 01:32:45;;;;;;;0.00;0.00;;;0.70;99.90;;;;;;4939640;28;20054;-65
2021/12/03 01:35:11;;;;;;;0.00;0.00;;;0.70;99.90;;;;;;4937859;28;20070;-65
2021/12/03 01:37:37;;;;;;;0.00;0.00;;;0.80;99.90;;;;;;4943321;28;20720;-64
2021/12/03 01:40:06;;;;;;;0.00;0.00;;;0.70;99.90;;;;;;4942830;28;20047;-65
2021/12/03 01:42:32;;;;;;;0.65;0.52;;;0.70;99.90;;;;;;4926307;28;20040;-64
2021/12/03 01:44:58;;;;;;;0.00;0.00;;;0.70;99.90;;;;;;4942473;28;20035;-65
2021/12/03 01:47:23;;;;;;;0.00;0.00;;;0.70;99.90;;;;;;4957928;28;20047;-64
2021/12/03 01:49:49;;;;;;;0.00;0.00;;;0.70;99.90;;;;;;4942238;29;20057;-65
2021/12/03 01:52:16;;;;;;;0.00;0.00;;;0.60;99.90;;;;;;4943149;28;20043;-64
2021/12/03 01:54:41;;;;;;;0.00;0.00;;;0.60;99.90;;;;;;4942339;28;20098;-65
2021/12/03 01:57:07;;;;;;;0.00;0.00;;;1.20;99.90;;;;;;4943157;29;20050;-65
2021/12/03 01:59:33;;;;;;;0.00;0.00;;;0.50;99.90;;;;;;4943367;28;20514;-66
2021/12/03 02:01:59;;;;;;;0.00;0.00;;;0.50;99.90;;;;;;4940997;29;20074;-65
2021/12/03 02:04:25;;;;;;;0.00;0.00;;;0.50;99.90;;;;;;4941004;28;20739;-62
2021/12/03 02:06:50;;;;;;;0.00;0.00;;;0.40;99.90;;;;;;4940928;29;20133;-65
2021/12/03 02:09:16;;;;;;;0.00;0.00;;;0.40;99.90;;;;;;4942260;29;20055;-64
2021/12/03 02:11:42;;;;;;;0.00;0.00;;;0.40;99.90;;;;;;4941511;29;20043;-65
2021/12/03 02:14:08;;;;;;;0.00;0.00;;;0.40;99.90;;;;;;4942305;28;20101;-65
2021/12/03 02:16:33;;;;;;;0.00;0.00;;;0.40;99.90;;;;;;4942454;29;20047;-65
2021/12/03 02:18:59;;;;;;;0.00;0.00;;;0.40;99.90;;;;;;4942010;28;20051;-65
2021/12/03 02:21:25;;;;;;;0.00;0.00;;;0.40;99.90;;;;;;4940191;29;20055;-64
2021/12/03 02:23:52;;;;;;;0.00;0.00;;;0.40;99.90;;;;;;4941023;29;20058;-64
2021/12/03 02:26:18;;;;;;;0.00;0.00;;;0.40;99.90;;;;;;4942266;28;20043;-64
2021/12/03 02:28:47;;;;;;;0.00;0.00;;;0.50;99.90;;;;;;4941681;28;20491;-64
2021/12/03 02:31:15;;;;;;;0.00;0.00;;;0.50;99.90;;;;;;4942378;28;20728;-64
2021/12/03 02:33:41;;;;;;;0.00;0.00;;;0.70;99.90;;;;;;4941169;28;20516;-64
2021/12/03 02:36:07;;;;;;;0.00;0.00;;;0.60;99.90;;;;;;4942182;28;20055;-63
2021/12/03 02:38:34;;;;;;;0.00;0.00;;;0.60;99.90;;;;;;4941420;28;20046;-64
2021/12/03 02:41:00;;;;;;;0.00;0.00;;;0.60;99.90;;;;;;4942223;28;20090;-63
2021/12/03 02:43:26;;;;;;;0.10;0.10;;;0.50;99.90;;;;;;4942029;29;20532;-63
2021/12/03 02:45:53;;;;;;;0.00;0.00;;;0.60;99.90;;;;;;4940484;29;20066;-63
2021/12/03 02:48:22;;;;;;;0.00;0.00;;;0.60;99.90;;;;;;4939862;28;20082;-63
2021/12/03 02:50:47;;;;;;;0.00;0.00;;;0.60;99.90;;;;;;4941736;29;20047;-63
2021/12/03 02:53:14;;;;;;;0.00;0.00;;;0.60;99.90;;;;;;4941672;28;20053;-63
2021/12/03 02:55:39;;;;;;;0.00;0.00;;;0.60;99.90;;;;;;4940988;28;20047;-63
2021/12/03 02:58:06;;;;;;;0.00;0.00;;;0.60;99.90;;;;;;4941455;28;20074;-63
2021/12/03 03:00:32;;;;;;;0.00;0.00;;;0.60;99.90;;;;;;4941007;28;20066;-62
2021/12/03 03:02:58;;;;;;;0.00;0.00;;;0.60;99.90;;;;;;4938491;29;20051;-63
2021/12/03 03:05:25;;;;;;;0.00;0.00;;;0.60;99.90;;;;;;4940438;28;20046;-63
2021/12/03 03:07:51;;;;;;;0.00;0.00;;;0.60;99.90;;;;;;4939843;28;20051;-63
2021/12/03 03:10:22;;;;;;;0.00;0.00;;;1.90;99.90;;;;;;4941499;28;20047;-62
2021/12/03 03:12:48;;;;;;;10.50;3.63;;;0.60;99.90;;;;;;4939105;29;20130;-63
2021/12/03 03:15:16;;;;;;;0.50;0.50;;;0.60;99.90;;;;;;4941119;28;20178;-63
2021/12/03 03:17:41;;;;;;;0.00;0.00;;;2.00;99.90;;;;;;4939720;29;20066;-63
2021/12/03 03:20:08;;;;;;;0.00;0.00;;;1.30;99.90;;;;;;4940391;29;20047;-63
2021/12/03 03:22:36;;;;;;;0.00;0.00;;;0.60;99.90;;;;;;4940404;28;20044;-63
2021/12/03 03:25:04;;;;;;;0.00;0.00;;;1.30;99.90;;;;;;4941439;29;20039;-63
2021/12/03 03:27:30;;;;;;;0.00;0.00;;;0.60;99.90;;;;;;4941398;29;20729;-63
2021/12/03 03:29:57;;;;;;;0.00;0.00;;;0.60;99.90;;;;;;4940245;29;20039;-63
2021/12/03 03:32:22;;;;;;;0.00;0.00;;;0.60;99.90;;;;;;4939709;29;20050;-63
2021/12/03 03:34:48;;;;;;;0.00;0.00;;;1.90;99.90;;;;;;4940151;29;20375;-63
2021/12/03 03:37:14;;;;;;;0.00;0.00;;;0.60;99.90;;;;;;4940884;29;20177;-63
2021/12/03 03:39:40;;;;;;;0.00;0.00;;;0.60;99.90;;;;;;4940490;28;20043;-63
2021/12/03 03:42:07;;;;;;;0.00;0.00;;;0.60;99.90;;;;;;4940827;29;20051;-63
2021/12/03 03:44:33;;;;;;;0.00;0.00;;;0.50;99.90;;;;;;4941012;29;20062;-63
2021/12/03 03:47:00;;;;;;;0.00;0.00;;;0.50;99.90;;;;;;4940684;29;20142;-63
2021/12/03 03:49:27;;;;;;;0.00;0.00;;;0.40;99.90;;;;;;4939224;28;20043;-63
2021/12/03 03:51:54;;;;;;;0.00;0.00;;;0.50;99.90;;;;;;4940665;28;20053;-63
2021/12/03 03:54:20;;;;;;;0.00;0.00;;;0.50;99.90;;;;;;4940675;29;20542;-63
2021/12/03 03:56:46;;;;;;;0.30;0.30;;;1.20;99.90;;;;;;4939856;29;20058;-63
2021/12/03 03:59:16;;;;;;;0.00;0.00;;;0.40;99.90;;;;;;4939811;28;20047;-63
2021/12/03 04:01:42;;;;;;;0.00;0.00;;;0.40;99.90;;;;;;4940916;28;20043;-66
2021/12/03 04:04:08;;;;;;;0.10;0.10;;;0.50;99.90;;;;;;4928192;29;20059;-66
2021/12/03 04:06:34;;;;;;;0.00;0.00;;;0.50;99.90;;;;;;4938069;29;20558;-66
2021/12/03 04:08:59;;;;;;;0.00;0.00;;;0.50;99.90;;;;;;4940592;29;20059;-65
2021/12/03 04:11:25;;;;;;;0.00;0.00;;;0.90;99.90;;;;;;4940517;29;20058;-66
2021/12/03 04:13:51;;;;;;;0.00;0.00;;;0.50;99.90;;;;;;4938936;29;20663;-65
2021/12/03 04:16:17;;;;;;;0.00;0.00;;;0.50;99.90;;;;;;4939792;29;20679;-66
2021/12/03 04:18:43;;;;;;;0.00;0.00;;;0.50;99.90;;;;;;4938477;28;20069;-65
2021/12/03 04:21:09;;;;;;;0.00;0.00;;;0.50;99.90;;;;;;4939071;28;20056;-66
2021/12/03 04:23:35;;;;;;;0.00;0.00;;;0.90;99.90;;;;;;4939736;28;20556;-65
2021/12/03 04:26:01;;;;;;;0.00;0.00;;;0.40;99.90;;;;;;4940809;28;20801;-65
2021/12/03 04:28:26;;;;;;;0.00;0.00;;;0.50;99.90;;;;;;4939036;29;20093;-66
2021/12/03 04:30:53;;;;;;;0.00;0.00;;;1.70;99.90;;;;;;4940371;28;20551;-65
2021/12/03 04:33:19;;;;;;;0.00;0.00;;;0.50;99.90;;;;;;4938695;28;20548;-66
2021/12/03 04:35:45;;;;;;;0.10;0.10;;;0.50;99.90;;;;;;4940233;28;20047;-65
2021/12/03 04:38:11;;;;;;;0.00;0.00;;;0.50;99.90;;;;;;4940092;29;20399;-66
2021/12/03 04:40:38;;;;;;;0.00;0.00;;;0.50;99.90;;;;;;4939108;29;20043;-65
2021/12/03 04:43:05;;;;;;;0.00;0.00;;;1.20;99.90;;;;;;4939171;28;20059;-65
2021/12/03 04:45:31;;;;;;;0.00;0.00;;;0.50;99.90;;;;;;4939684;29;20426;-62
2021/12/03 04:47:58;;;;;;;0.00;0.00;;;0.50;99.90;;;;;;4938271;28;20058;-63
2021/12/03 04:50:27;;;;;;;0.00;0.00;;;0.50;99.90;;;;;;4939386;28;20094;-63
2021/12/03 04:52:53;;;;;;;0.00;0.00;;;0.50;99.90;;;;;;4940170;28;20158;-64
2021/12/03 04:55:20;;;;;;;0.00;0.00;;;0.50;99.90;;;;;;4940058;28;20058;-66
2021/12/03 04:57:49;;;;;;;0.00;0.00;;;0.40;99.90;;;;;;4940039;28;20528;-65
2021/12/03 05:00:26;;;;;;;0.00;0.00;;;1.10;99.90;;;;;;4939415;28;20058;-65
2021/12/03 05:02:53;;;;;;;0.00;0.00;;;0.40;99.90;;;;;;4937586;28;20410;-65
2021/12/03 05:05:19;;;;;;;0.00;0.00;;;0.40;99.90;;;;;;4939813;28;20051;-66
2021/12/03 05:07:57;;;;;;;0.00;0.00;;;0.40;99.90;;;;;;4937711;29;20138;-65
2021/12/03 05:10:27;;;;;;;0.00;0.00;;;0.40;99.90;;;;;;4940212;28;20078;-64
2021/12/03 05:12:58;;;;;;;0.00;0.00;;;0.40;99.90;;;;;;4941303;29;20050;-63
2021/12/03 05:15:24;;;;;;;0.00;0.00;;;0.40;99.90;;;;;;4942105;29;20100;-63
2021/12/03 05:17:50;;;;;;;0.00;0.00;;;0.40;99.90;;;;;;4942816;28;20179;-64
2021/12/03 05:20:15;;;;;;;0.00;0.00;;;0.30;99.90;;;;;;4943355;29;20130;-64
2021/12/03 05:22:41;;;;;;;0.15;0.15;;;0.50;99.90;;;;;;4942754;28;20055;-64
2021/12/03 05:25:07;;;;;;;0.00;0.00;;;0.30;99.90;;;;;;4943428;28;20047;-63
2021/12/03 05:27:33;;;;;;;0.00;0.00;;;0.40;99.90;;;;;;4926438;29;20202;-63
2021/12/03 05:29:59;;;;;;;0.00;0.00;;;0.40;99.90;;;;;;4942229;28;20050;-63
2021/12/03 05:32:25;;;;;;;0.00;0.00;;;0.10;99.90;;;;;;4942686;29;20043;-65
2021/12/03 05:34:51;;;;;;;0.00;0.00;;;-2.50;99.90;;;;;;4942433;28;20055;-65
2021/12/03 05:37:16;;;;;;;0.00;0.00;;;0.30;99.90;;;;;;4943139;29;20048;-66
2021/12/03 05:39:42;;;;;;;0.00;0.00;;;0.30;99.90;;;;;;4941984;29;20039;-66
2021/12/03 05:42:08;;;;;;;0.00;0.00;;;0.40;99.90;;;;;;4942954;29;20073;-66
2021/12/03 05:44:34;;;;;;;0.00;0.00;;;0.40;99.90;;;;;;4943107;29;20035;-66
2021/12/03 05:47:01;;;;;;;0.00;0.00;;;0.30;99.90;;;;;;4942295;29;20055;-64
2021/12/03 05:49:27;;;;;;;0.00;0.00;;;0.40;99.90;;;;;;4941332;29;20101;-63
2021/12/03 05:51:54;;;;;;;0.00;0.00;;;0.40;99.90;;;;;;4941607;28;20179;-65
2021/12/03 05:54:21;;;;;;;0.00;0.00;;;0.40;99.90;;;;;;4941628;28;20051;-63
2021/12/03 05:56:47;;;;;;;0.17;0.17;;;0.40;99.90;;;;;;4942634;28;20058;-64
2021/12/03 05:59:13;;;;;;;0.15;0.15;;;0.40;99.90;;;;;;4940459;29;20040;-63
2021/12/03 06:01:39;;;;;;;0.10;0.10;;;0.80;99.90;;;;;;4942990;29;20396;-64
2021/12/03 06:04:04;;;;;;;0.00;0.00;;;0.50;99.90;;;;;;4934186;29;20454;-64
2021/12/03 06:06:30;;;;;;;0.47;0.38;;;0.50;99.90;;;;;;4942686;29;20142;-63
2021/12/03 06:08:59;;;;;;;0.10;0.10;;;0.50;99.90;;;;;;4942221;29;20848;-63
2021/12/03 06:11:26;;;;;;;0.05;0.05;;;0.50;99.90;;;;;;4942397;28;20055;-63
2021/12/03 06:13:52;;;;;;;0.40;0.30;;;0.80;99.90;;;;;;4957304;28;20059;-63
2021/12/03 06:16:17;;;;;;;0.30;0.30;;;0.60;99.90;;;;;;4941575;28;20389;-63
2021/12/03 06:18:44;;;;;;;0.00;0.00;;;0.60;99.90;;;;;;4941411;29;20079;-65
2021/12/03 06:21:11;;;;;;;0.00;0.00;;;0.60;99.90;;;;;;4942566;29;20078;-65
2021/12/03 06:23:37;;;;;;;0.10;0.10;;;0.60;99.90;;;;;;4941321;28;20043;-66
2021/12/03 06:26:05;;;;;;;0.00;0.00;;;-0.10;99.90;;;;;;4941632;28;20161;-65
2021/12/03 06:28:31;;;;;;;0.00;0.00;;;0.90;99.90;;;;;;4942717;28;20066;-65
2021/12/03 06:30:57;;;;;;;0.00;0.00;;;1.10;99.90;;;;;;4940881;29;20082;-66
2021/12/03 06:33:23;;;;;;;0.00;0.00;;;0.60;99.90;;;;;;4940547;28;20474;-65
2021/12/03 06:35:49;;;;;;;0.00;0.00;;;0.60;99.90;;;;;;4942151;29;20051;-65
2021/12/03 06:38:16;;;;;;;0.20;0.20;;;0.60;99.90;;;;;;4941979;29;20083;-66
2021/12/03 06:40:42;;;;;;;0.00;0.00;;;0.50;99.90;;;;;;4941751;28;20057;-65
2021/12/03 06:43:08;;;;;;;0.30;0.30;;;0.50;99.90;;;;;;4940890;28;20110;-65
2021/12/03 06:45:34;;;;;;;0.17;0.17;;;0.50;99.90;;;;;;4941834;28;20035;-65
2021/12/03 06:48:00;;;;;;;0.00;0.00;;;0.50;99.90;;;;;;4941264;29;20054;-64
2021/12/03 06:50:26;;;;;;;0.10;0.10;;;0.50;99.90;;;;;;4941641;29;20043;-65
2021/12/03 06:52:59;;;;;;;0.00;0.00;;;0.40;99.90;;;;;;4940671;29;20054;-65
2021/12/03 06:55:25;;;;;;;0.00;0.00;;;0.50;99.90;;;;;;4941765;28;20051;-65
2021/12/03 06:57:51;;;;;;;0.00;0.00;;;0.60;99.90;;;;;;4941774;29;20043;-65
2021/12/03 07:00:19;;;;;;;0.90;0.82;;;0.90;99.90;;;;;;4940657;29;20043;-65
2021/12/03 07:02:45;;;;;;;0.17;0.17;;;0.60;99.90;;;;;;4940121;28;20778;-65
2021/12/03 07:05:11;;;;;;;0.00;0.00;;;0.60;99.90;;;;;;4941394;29;20082;-65
2021/12/03 07:07:37;;;;;;;0.00;0.00;;;0.60;99.90;;;;;;4941443;28;20059;-65
2021/12/03 07:10:04;;;;;;;0.00;0.00;;;0.60;99.90;;;;;;4940856;29;20081;-65
2021/12/03 07:12:31;;;;;;;0.00;0.00;;;0.60;99.90;;;;;;4942188;29;20047;-64
2021/12/03 07:14:58;;;;;;;0.00;0.00;;;0.60;99.90;;;;;;4941281;29;20109;-65
2021/12/03 07:17:26;;;;;;;0.00;0.00;;;0.70;99.90;;;;;;4939530;28;20047;-65
2021/12/03 07:19:57;;;;;;;0.00;0.00;;;0.80;99.90;;;;;;4940922;28;20102;-65
2021/12/03 07:22:25;;;;;;;0.00;0.00;;;0.80;99.90;;;;;;4941402;28;20047;-65
2021/12/03 07:24:50;;;;;;;0.00;0.00;;;0.80;99.90;;;;;;4940325;28;20082;-65
2021/12/03 07:27:16;;;;;;;0.00;0.00;;;0.90;99.90;;;;;;4939771;28;20083;-65
2021/12/03 07:29:47;;;;;;;0.00;0.00;;;1.40;99.90;;;;;;4939910;29;20043;-65
2021/12/03 07:32:16;;;;;;;0.00;0.00;;;0.90;99.90;;;;;;4940932;28;20051;-65
2021/12/03 07:34:43;;;;;;;0.10;0.10;;;1.00;99.90;;;;;;4938445;28;20054;-65
2021/12/03 07:37:10;;;;;;;0.00;0.00;;;1.00;99.90;;;;;;4939986;29;20062;-64
2021/12/03 07:39:36;;;;;;;0.00;0.00;;;1.00;99.90;;;;;;4941196;29;20414;-64
2021/12/03 07:42:03;;;;;;;0.10;0.10;;;2.60;99.90;;;;;;4940420;28;20051;-65
2021/12/03 07:44:29;;;;;;;0.00;0.00;;;1.00;99.90;;;;;;4941173;28;20047;-65
2021/12/03 07:46:54;;;;;;;0.00;0.00;;;0.80;99.90;;;;;;4941138;28;20741;-64
2021/12/03 07:49:21;;;;;;;0.00;0.00;;;1.00;99.90;;;;;;4939903;29;20080;-64
2021/12/03 07:51:47;;;;;;;0.05;0.05;;;0.90;99.90;;;;;;4938786;29;20504;-64
2021/12/03 07:54:13;;;;;;;0.00;0.00;;;1.00;99.90;;;;;;4940608;29;20046;-64
2021/12/03 07:56:38;;;;;;;0.20;0.20;;;1.00;99.90;;;;;;4940980;29;20081;-64
2021/12/03 07:59:05;;;;;;;0.00;0.00;;;2.30;99.90;;;;;;4940761;29;20561;-64
2021/12/03 08:01:31;;;;;;;0.10;0.10;;;1.00;99.90;;;;;;4940419;29;20398;-64
2021/12/03 08:03:56;;;;;;;0.00;0.00;;;0.90;99.90;;;;;;4938957;29;20055;-64
2021/12/03 08:06:22;;;;;;;0.00;0.00;;;1.00;99.90;;;;;;4940466;29;20569;-64
2021/12/03 08:08:48;;;;;;;0.00;0.00;;;1.00;99.90;;;;;;4939179;28;20174;-64
2021/12/03 08:11:14;;;;;;;0.00;0.00;;;2.20;99.90;;;;;;4938808;29;20054;-64
2021/12/03 08:13:39;;;;;;;0.10;0.10;;;1.00;99.90;;;;;;4923503;29;20047;-63
2021/12/03 08:16:05;;;;;;;0.00;0.00;;;1.10;99.90;;;;;;4940310;29;20051;-65
2021/12/03 08:18:31;;;;;;;0.10;0.10;;;1.10;99.90;;;;;;4939359;28;20145;-64
2021/12/03 08:20:57;;;;;;;0.28;0.28;;;1.10;99.90;;;;;;4939064;29;20130;-64
2021/12/03 08:23:23;;;;;;;0.00;0.00;;;1.20;99.90;;;;;;4940048;28;20050;-64
2021/12/03 08:25:49;;;;;;;0.00;0.00;;;1.20;99.90;;;;;;4930276;28;20127;-64
2021/12/03 08:28:14;;;;;;;0.00;0.00;;;1.20;99.90;;;;;;4928373;28;20151;-64
2021/12/03 08:30:40;;;;;;;0.00;0.00;;;1.90;99.90;;;;;;4931163;29;20043;-64
2021/12/03 08:33:06;;;;;;;0.38;0.38;;;1.20;99.90;;;;;;4929846;29;20054;-65
2021/12/03 08:35:32;;;;;;;0.35;0.35;;;1.20;99.90;;;;;;4929687;28;20066;-63
2021/12/03 08:37:58;;;;;;;0.10;0.10;;;1.20;99.90;;;;;;4920730;29;20077;-62
2021/12/03 08:40:24;;;;;;;0.00;0.00;;;1.20;99.90;;;;;;4921180;29;20271;-62
2021/12/03 08:42:51;;;;;;;0.00;0.00;;;1.20;99.90;;;;;;4921053;29;20094;-63
2021/12/03 08:45:18;;;;;;;0.00;0.00;;;1.20;99.90;;;;;;4920824;29;20050;-63
2021/12/03 08:47:52;;;;;;;0.00;0.00;;;1.20;99.90;;;;;;4924148;29;20087;-64
2021/12/03 08:50:50;;;;;;;1.90;0.63;;;1.30;99.90;;;;;;4925015;29;20135;-62
2021/12/03 08:53:15;;;;;;;0.00;0.00;;;1.40;99.90;;;;;;4924376;29;20048;-63
2021/12/03 08:55:42;;;;;;;0.00;0.00;;;1.30;99.90;;;;;;4923571;29;20055;-63
2021/12/03 08:58:09;;;;;;;0.00;0.00;;;1.30;99.90;;;;;;4924170;29;20039;-63
2021/12/03 09:00:36;;;;;;;0.10;0.10;;;1.30;99.90;;;;;;4923561;29;20051;-64
2021/12/03 09:03:02;;;;;;;0.00;0.00;;;1.30;99.90;;;;;;4929717;29;20542;-63
2021/12/03 09:05:31;;;;;;;0.00;0.00;;;1.30;99.90;;;;;;4934527;29;20110;-63
2021/12/03 09:07:58;;;;;;;0.00;0.00;;;1.30;99.90;;;;;;4942499;28;20466;-63
2021/12/03 09:10:25;;;;;;;0.10;0.10;;;1.30;99.90;;;;;;4943733;28;20062;-63
2021/12/03 09:12:51;;;;;;;0.10;0.10;;;1.40;99.90;;;;;;4943502;28;20070;-63
2021/12/03 09:15:23;;;;;;;0.00;0.00;;;1.40;99.90;;;;;;4936294;29;20114;-63
2021/12/03 09:18:51;;;;;;;0.00;0.00;;;1.40;99.90;;;;;;4933761;29;20055;-63
2021/12/03 09:20:54;;;;;;;0.00;0.00;;;1.50;99.90;;;;;;4927184;29;20439;-62
2021/12/03 09:23:53;;;;;;;0.28;0.28;;;1.40;99.90;;;;;;4924025;29;20055;-63
2021/12/03 09:26:09;;;;;;;0.17;0.17;;;2.70;99.90;;;;;;4922883;29;20048;-63
2021/12/03 09:28:37;;;;;;;0.00;0.00;;;1.50;99.90;;;;;;4924446;29;20055;-63
2021/12/03 09:31:04;;;;;;;0.52;0.52;;;2.10;99.90;;;;;;4924035;29;20183;-63
2021/12/03 09:33:31;;;;;;;0.10;0.10;;;1.60;99.90;;;;;;4922360;29;20487;-63
2021/12/03 09:36:01;;;;;;;0.10;0.10;;;2.20;99.90;;;;;;4922216;29;20055;-63
2021/12/03 09:38:31;;;;;;;0.00;0.00;;;1.60;99.90;;;;;;4922628;29;20101;-63
2021/12/03 09:41:14;;;;;;;0.30;0.30;;;1.60;99.90;;;;;;4923959;29;20059;-63
2021/12/03 09:43:44;;;;;;;0.20;0.20;;;1.60;99.90;;;;;;4922337;29;20123;-62
2021/12/03 09:46:20;;;;;;;0.00;0.00;;;1.60;99.90;;;;;;4924129;29;20414;-63
2021/12/03 09:51:22;;;;;;;0.00;0.00;;;1.60;99.90;;;;;;4923939;29;20074;-63
2021/12/03 09:56:19;;;;;;;1.55;1.10;;;2.70;99.90;;;;;;4922898;29;20051;-62
2021/12/03 10:01:26;;;;;;;0.10;0.10;;;1.70;99.90;;;;;;4923383;29;20043;-63
2021/12/03 10:14:49;;;;;;;0.00;0.00;;;1.90;99.90;;;;;;4941721;28;20058;-63
2021/12/03 10:20:18;;;;;;;0.15;0.15;;;1.90;99.90;;;;;;4939559;28;20055;-63
2021/12/03 10:28:40;;;;;;;0.90;0.63;;;2.00;99.90;;;;;;4927685;29;20059;-63
2021/12/03 10:45:17;;;;;;;0.00;0.00;;;5.70;99.90;;;;;;4941528;29;20047;-62
2021/12/03 10:50:26;;;;;;;0.00;0.00;;;2.20;99.90;;;;;;4960891;28;20883;-67
2021/12/03 10:56:00;;;;;;;0.00;0.00;;;2.30;99.90;;;;;;4959756;28;20062;-63
2021/12/03 11:04:26;;;;;;;0.00;0.00;;;2.30;99.90;;;;;;4908036;29;20077;-67
2021/12/03 11:30:49;;;;;;;2.10;0.82;;;2.50;99.90;;;;;;4920681;29;20200;-68
2021/12/03 12:10:19;;;;;;;0.00;0.00;;;2.40;99.90;;;;;;4937823;29;20098;-64
2021/12/03 13:13:34;;;;;;;0.00;0.00;;;2.10;99.90;;;;;;4940435;28;20051;-65
2021/12/03 14:41:44;;;;;;;0.00;0.00;;;2.60;99.90;;;;;;4937524;29;20114;-65
2021/12/03 14:47:37;;;;;;;0.00;0.00;;;2.50;99.90;;;;;;4936888;29;20403;-65
2021/12/03 14:50:25;;;;;;;0.00;0.00;;;2.90;99.90;;;;;;4937361;28;20052;-66
2021/12/03 14:55:53;;;;;;;0.00;0.00;;;2.60;99.90;;;;;;4928736;28;20578;-66
2021/12/03 14:58:29;;;;;;;0.00;0.00;;;2.70;99.90;;;;;;4935669;28;20671;-67
2021/12/03 15:00:59;;;;;;;0.00;0.00;;;2.70;99.90;;;;;;4928264;28;20043;-65
2021/12/03 15:03:41;;;;;;;0.00;0.00;;;2.80;99.90;;;;;;4934389;28;20058;-66
2021/12/03 15:08:49;;;;;;;0.00;0.00;;;2.80;99.90;;;;;;4934518;29;20059;-66
2021/12/03 15:18:58;;;;;;;0.00;0.00;;;3.00;99.90;;;;;;4936237;28;20122;-65
2021/12/03 15:21:48;;;;;;;0.03;0.03;;;3.10;99.90;;;;;;4935935;28;20055;-65
2021/12/03 15:24:37;;;;;;;0.00;0.00;;;3.10;99.90;;;;;;4935959;28;20514;-65
2021/12/03 15:27:39;;;;;;;0.00;0.00;;;3.10;99.90;;;;;;4927024;29;20058;-65
2021/12/03 15:33:07;;;;;;;0.15;0.15;;;3.20;99.90;;;;;;4858134;29;20064;-65
2021/12/03 15:35:43;;;;;;;0.00;0.00;;;3.90;99.90;;;;;;4857632;29;20053;-65
2021/12/03 15:38:26;;;;;;;0.00;0.00;;;3.30;99.90;;;;;;4907034;28;20047;-68
2021/12/03 16:05:57;;;;;;;0.00;0.00;;;3.40;99.90;;;;;;4936049;28;20109;-68
2021/12/03 16:08:44;;;;;;;0.00;0.00;;;3.40;99.90;;;;;;4936709;28;20341;-67
2021/12/03 16:21:31;;;;;;;0.00;0.00;;;4.20;99.90;;;;;;4935479;29;20105;-67
2021/12/03 16:46:08;;;;;;;0.00;0.00;;;3.40;99.90;;;;;;4935464;28;20063;-67
2021/12/03 16:54:24;;;;;;;0.10;0.10;;;3.70;99.90;;;;;;4903058;29;20058;-67
2021/12/03 16:56:53;;;;;;;0.00;0.00;;;3.30;99.90;;;;;;4935634;29;20051;-68
2021/12/03 16:59:19;;;;;;;0.00;0.00;;;3.30;99.90;;;;;;4935108;28;20039;-68
2021/12/03 17:12:32;;;;;;;0.00;0.00;;;3.30;99.90;;;;;;4938067;28;20058;-68
2021/12/03 17:23:37;;;;;;;0.00;0.00;;;3.30;99.90;;;;;;4939023;28;20062;-69
2021/12/03 18:01:04;;;;;;;0.00;0.00;;;3.40;99.90;;;;;;4938068;28;20043;-66
2021/12/03 18:03:12;;;;;;;0.00;0.00;;;3.40;99.90;;;;;;4929042;29;20455;-67
2021/12/03 18:08:37;;;;;;;0.00;0.00;;;3.50;99.90;;;;;;4893809;29;20960;-67
2021/12/03 18:17:01;;;;;;;0.10;0.10;;;3.50;99.90;;;;;;4936026;29;20118;-65
2021/12/03 18:52:14;;;;;;;0.05;0.05;;;3.90;99.90;;;;;;4936148;29;20055;-68
2021/12/03 18:57:18;;;;;;;0.00;0.00;;;3.60;99.90;;;;;;4936165;28;20051;-68
2021/12/03 18:59:56;;;;;;;0.10;0.10;;;3.60;99.90;;;;;;4933207;29;20045;-68
2021/12/03 19:02:24;;;;;;;0.00;0.00;;;3.60;99.90;;;;;;4935458;28;20739;-68
2021/12/03 19:04:56;;;;;;;0.10;0.10;;;3.60;99.90;;;;;;4934738;29;20047;-67
2021/12/03 19:07:27;;;;;;;0.00;0.00;;;3.60;99.90;;;;;;4898797;28;1080263;-67
2021/12/03 19:09:56;;;;;;;0.00;0.00;;;5.10;99.90;;;;;;4936923;28;20050;-67
2021/12/03 19:12:26;;;;;;;0.10;0.10;;;3.60;99.90;;;;;;4930549;28;20070;-66
2021/12/03 19:14:57;;;;;;;0.00;0.00;;;3.70;99.90;;;;;;4934844;28;20924;-66
2021/12/03 19:17:24;;;;;;;0.60;0.60;;;3.60;99.90;;;;;;4936170;28;21075;-66
2021/12/03 19:19:53;;;;;;;0.00;0.00;;;3.70;99.90;;;;;;4929069;29;20498;-65
2021/12/03 19:22:21;;;;;;;0.00;0.00;;;3.70;99.90;;;;;;4935680;29;20047;-66
2021/12/03 19:24:46;;;;;;;0.00;0.00;;;3.70;99.90;;;;;;4936858;28;20069;-68
2021/12/03 19:27:12;;;;;;;0.00;0.00;;;3.70;99.90;;;;;;4935558;28;20051;-69
2021/12/03 19:29:39;;;;;;;0.20;0.20;;;3.70;99.90;;;;;;4935744;28;20055;-66
2021/12/03 19:32:06;;;;;;;0.00;0.00;;;4.70;99.90;;;;;;4933998;28;20106;-66
2021/12/03 19:34:32;;;;;;;0.00;0.00;;;3.70;99.90;;;;;;4934032;28;20078;-67
2021/12/03 19:36:58;;;;;;;0.20;0.20;;;3.70;99.90;;;;;;4936127;28;20043;-68
2021/12/03 19:39:24;;;;;;;0.00;0.00;;;3.70;99.90;;;;;;4934662;29;20066;-66
2021/12/03 19:42:06;;;;;;;0.00;0.00;;;3.40;99.90;;;;;;4934647;28;20043;-66
2021/12/03 19:44:56;;;;;;;0.10;0.10;;;3.70;99.90;;;;;;4928409;29;20537;-66
2021/12/03 19:47:27;;;;;;;0.00;0.00;;;3.80;99.90;;;;;;4934480;28;20043;-65
2021/12/03 19:50:05;;;;;;;0.00;0.00;;;3.80;99.90;;;;;;4934790;29;20109;-65
2021/12/03 19:52:39;;;;;;;0.25;0.22;;;3.80;99.90;;;;;;4935733;28;20084;-65
2021/12/03 19:55:05;;;;;;;0.00;0.00;;;3.80;99.90;;;;;;4934993;28;20117;-66
2021/12/03 19:57:31;;;;;;;0.00;0.00;;;3.80;99.90;;;;;;4934987;28;20070;-66
2021/12/03 19:59:57;;;;;;;0.00;0.00;;;4.30;99.90;;;;;;4925763;29;20059;-65
2021/12/03 20:02:22;;;;;;;0.10;0.10;;;3.90;99.90;;;;;;4934773;28;20270;-66
2021/12/03 20:04:48;;;;;;;0.00;0.00;;;3.90;99.90;;;;;;4936272;29;20061;-68
2021/12/03 20:07:15;;;;;;;0.00;0.00;;;3.90;99.90;;;;;;4935710;28;20126;-65
2021/12/03 20:09:46;;;;;;;0.00;0.00;;;4.00;99.90;;;;;;4934526;28;20087;-65
2021/12/03 20:12:17;;;;;;;0.00;0.00;;;4.00;99.90;;;;;;4928762;29;20158;-65
2021/12/03 20:14:44;;;;;;;0.00;0.00;;;3.90;99.90;;;;;;4935938;28;20115;-65
2021/12/03 20:17:23;;;;;;;2.00;1.08;;;3.90;99.90;;;;;;4934941;28;20194;-65
2021/12/03 20:19:55;;;;;;;0.28;0.28;;;4.10;99.90;;;;;;4935732;29;20043;-66
2021/12/03 20:22:31;;;;;;;0.00;0.00;;;4.00;99.90;;;;;;4935453;28;20101;-66
2021/12/03 20:27:45;;;;;;;0.00;0.00;;;4.00;99.90;;;;;;4935807;28;20054;-65